createdAt,value
2022-11-02T00:00:35.630Z,97986.16
2022-11-02T00:03:08.994Z,97987.86
2022-11-02T00:05:41.898Z,97988.35
2022-11-02T00:08:14.598Z,97992.64
2022-11-02T00:10:47.432Z,97994.34
2022-11-02T00:13:25.638Z,97995.02
2022-11-02T00:15:58.701Z,97990.17
2022-11-02T00:18:30.159Z,97985.83
2022-11-02T00:21:04.110Z,97985.84
2022-11-02T00:23:37.359Z,97979.89
2022-11-02T00:26:10.868Z,97978.48
2022-11-02T00:28:44.362Z,97986.61
2022-11-02T00:31:17.931Z,97988.25
2022-11-02T00:33:50.666Z,97985.64
2022-11-02T00:36:25.270Z,97983.83
2022-11-02T00:38:58.016Z,97986.21
2022-11-02T00:41:32.209Z,97984.45
2022-11-02T00:44:05.560Z,97983.20
2022-11-02T00:46:40.249Z,97985.41
2022-11-02T00:49:12.898Z,97986.99
2022-11-02T00:51:45.598Z,97990.94
2022-11-02T00:54:22.226Z,97995.64
2022-11-02T00:59:32.295Z,97992.30
2022-11-02T01:02:05.396Z,97993.09
2022-11-02T01:04:39.199Z,97989.91
2022-11-02T01:07:11.878Z,97994.17
2022-11-02T01:09:44.468Z,97991.94
2022-11-02T01:12:26.508Z,97994.52
2022-11-02T01:14:59.138Z,97998.67
2022-11-02T01:17:31.878Z,97999.85
2022-11-02T01:20:04.684Z,97995.31
2022-11-02T01:22:37.798Z,97995.98
2022-11-02T01:25:12.859Z,97995.38
2022-11-02T01:27:45.568Z,97994.45
2022-11-02T01:30:19.460Z,98000.83
2022-11-02T01:32:52.147Z,98002.68
2022-11-02T01:35:25.929Z,98003.14
2022-11-02T01:37:59.068Z,98000.33
2022-11-02T01:40:43.526Z,97999.91
2022-11-02T01:43:27.590Z,98002.11
2022-11-02T01:46:07.375Z,98000.25
2022-11-02T01:48:43.076Z,97999.67
2022-11-02T01:51:23.599Z,98003.09
2022-11-02T01:53:59.175Z,98003.23
2022-11-02T01:56:34.823Z,98007.02
2022-11-02T01:59:14.758Z,98002.84
2022-11-02T02:01:48.085Z,98007.10
2022-11-02T02:04:21.079Z,98005.20
2022-11-02T02:06:55.617Z,98005.69
2022-11-02T02:09:30.565Z,98000.66
2022-11-02T02:12:03.416Z,97997.85
2022-11-02T02:14:36.996Z,97996.79
2022-11-02T02:17:24.841Z,98000.08
2022-11-02T02:20:04.758Z,97999.92
2022-11-02T02:23:15.526Z,97995.63
2022-11-02T02:26:16.468Z,97997.02
2022-11-02T02:28:53.103Z,97998.16
2022-11-02T02:31:32.816Z,97999.12
2022-11-02T02:34:12.966Z,98000.30
2022-11-02T02:36:51.745Z,97999.45
2022-11-02T02:39:32.606Z,98002.55
2022-11-02T02:42:13.569Z,98002.54
2022-11-02T02:44:51.385Z,98002.23
2022-11-02T02:47:28.198Z,98001.17
2022-11-02T02:50:09.298Z,97996.52
2022-11-02T02:52:44.118Z,97999.79
2022-11-02T02:55:24.359Z,97998.21
2022-11-02T02:57:59.767Z,98004.81
2022-11-02T03:00:33.399Z,98006.25
2022-11-02T03:03:07.558Z,98007.48
2022-11-02T03:05:41.469Z,98014.40
2022-11-02T03:08:18.569Z,98014.92
2022-11-02T03:10:58.888Z,98016.50
2022-11-02T03:13:47.328Z,98014.14
2022-11-02T03:16:31.518Z,98021.12
2022-11-02T03:19:13.388Z,98022.70
2022-11-02T03:21:51.838Z,98025.02
2022-11-02T03:24:34.966Z,98026.34
2022-11-02T03:27:20.579Z,98026.93
2022-11-02T03:30:03.258Z,98028.08
2022-11-02T03:32:40.120Z,98029.14
2022-11-02T03:35:18.589Z,98027.48
2022-11-02T03:37:59.463Z,98032.54
2022-11-02T03:40:39.728Z,98029.45
2022-11-02T03:43:16.003Z,98028.95
2022-11-02T03:45:52.520Z,98024.70
2022-11-02T03:48:27.719Z,98023.05
2022-11-02T03:51:04.768Z,98024.29
2022-11-02T03:53:44.168Z,98026.85
2022-11-02T03:56:23.189Z,98030.70
2022-11-02T03:58:56.258Z,98030.36
2022-11-02T04:01:31.739Z,98034.36
2022-11-02T04:04:05.572Z,98038.09
2022-11-02T04:06:39.859Z,98036.02
2022-11-02T04:09:13.477Z,98035.48
2022-11-02T04:12:04.056Z,98034.30
2022-11-02T04:14:40.398Z,98034.50
2022-11-02T04:17:33.397Z,98038.52
2022-11-02T04:20:08.208Z,98037.34
2022-11-02T04:22:58.534Z,98038.58
2022-11-02T04:25:32.940Z,98042.08
2022-11-02T04:28:11.121Z,98045.02
2022-11-02T04:30:47.559Z,98044.92
2022-11-02T04:33:35.682Z,98042.81
2022-11-02T04:36:35.350Z,98041.77
2022-11-02T04:39:08.749Z,98040.83
2022-11-02T04:41:44.115Z,98041.70
2022-11-02T04:44:30.427Z,98043.02
2022-11-02T04:47:11.919Z,98043.26
2022-11-02T04:49:44.679Z,98045.52
2022-11-02T04:52:20.080Z,98047.77
2022-11-02T04:54:55.399Z,98050.05
2022-11-02T04:57:28.917Z,98046.78
2022-11-02T05:00:03.062Z,98042.33
2022-11-02T05:02:36.178Z,98047.21
2022-11-02T05:05:12.682Z,98047.89
2022-11-02T05:07:46.057Z,98053.61
2022-11-02T05:10:18.988Z,98053.48
2022-11-02T05:12:50.238Z,98054.17
2022-11-02T05:15:23.050Z,98058.30
2022-11-02T05:17:56.018Z,98059.83
2022-11-02T05:20:28.828Z,98064.71
2022-11-02T05:23:01.580Z,98069.23
2022-11-02T05:25:39.038Z,98070.81
2022-11-02T05:28:12.069Z,98073.09
2022-11-02T05:30:45.078Z,98076.03
2022-11-02T05:33:17.410Z,98076.92
2022-11-02T05:35:51.027Z,98073.05
2022-11-02T05:38:23.717Z,98071.98
2022-11-02T05:41:00.468Z,98073.34
2022-11-02T05:43:35.719Z,98076.52
2022-11-02T05:46:10.076Z,98083.42
2022-11-02T05:48:43.174Z,98089.04
2022-11-02T05:51:17.213Z,98086.48
2022-11-02T05:53:49.819Z,98089.89
2022-11-02T05:56:25.199Z,98087.83
2022-11-02T05:59:00.746Z,98091.77
2022-11-02T06:01:33.568Z,98093.66
2022-11-02T06:04:07.998Z,98098.32
2022-11-02T06:06:40.471Z,98099.02
2022-11-02T06:09:13.367Z,98099.85
2022-11-02T06:11:45.979Z,98100.58
2022-11-02T06:14:19.688Z,98100.31
2022-11-02T06:16:54.938Z,98104.32
2022-11-02T06:19:27.635Z,98104.01
2022-11-02T06:22:00.326Z,98108.77
2022-11-02T06:24:33.158Z,98109.27
2022-11-02T06:27:05.929Z,98106.73
2022-11-02T06:29:39.006Z,98113.21
2022-11-02T06:32:12.055Z,98107.89
2022-11-02T06:34:44.919Z,98108.22
2022-11-02T06:37:17.766Z,98108.48
2022-11-02T06:39:50.613Z,98106.48
2022-11-02T06:42:23.408Z,98108.78
2022-11-02T06:45:02.747Z,98110.70
2022-11-02T06:47:38.759Z,98111.48
2022-11-02T06:50:12.678Z,98114.40
2022-11-02T06:52:48.478Z,98118.20
2022-11-02T06:55:21.719Z,98115.42
2022-11-02T06:57:55.177Z,98113.50
2022-11-02T07:00:25.959Z,98110.21
2022-11-02T07:03:06.126Z,98108.47
2022-11-02T07:05:39.666Z,98106.86
2022-11-02T07:08:12.270Z,98108.05
2022-11-02T07:10:45.778Z,98106.51
2022-11-02T07:13:18.889Z,98110.71
2022-11-02T07:15:55.406Z,98113.60
2022-11-02T07:18:28.238Z,98114.26
2022-11-02T07:21:02.983Z,98110.92
2022-11-02T07:23:35.770Z,98110.90
2022-11-02T07:26:11.698Z,98111.08
2022-11-02T07:28:48.991Z,98114.05
2022-11-02T07:31:21.688Z,98113.46
2022-11-02T07:33:54.816Z,98113.77
2022-11-02T07:36:27.451Z,98116.56
2022-11-02T07:39:00.046Z,98111.09
2022-11-02T07:41:33.182Z,98112.80
2022-11-02T07:44:06.890Z,98112.20
2022-11-02T07:46:42.145Z,98109.42
2022-11-02T07:49:21.276Z,98107.98
2022-11-02T07:51:54.599Z,98103.61
2022-11-02T07:54:28.008Z,98102.06
2022-11-02T07:57:01.596Z,98103.48
2022-11-02T07:59:34.289Z,98100.52
2022-11-02T08:02:07.329Z,98100.05
2022-11-02T08:04:44.065Z,98098.02
2022-11-02T08:07:17.898Z,98095.52
2022-11-02T08:09:51.283Z,98094.08
2022-11-02T08:12:22.157Z,98093.48
2022-11-02T08:14:54.743Z,98094.87
2022-11-02T08:17:27.608Z,98105.84
2022-11-02T08:20:01.319Z,98100.50
2022-11-02T08:22:34.190Z,98103.33
2022-11-02T08:25:08.700Z,98098.24
2022-11-02T08:27:46.037Z,98099.52
2022-11-02T08:30:19.106Z,98097.86
2022-11-02T08:32:56.477Z,98093.59
2022-11-02T08:35:29.986Z,98094.08
2022-11-02T08:38:03.792Z,98094.05
2022-11-02T08:40:37.879Z,98096.21
2022-11-02T08:43:12.116Z,98093.92
2022-11-02T08:48:40.189Z,98096.65
2022-11-02T08:51:13.170Z,98097.55
2022-11-02T08:53:51.166Z,98096.71
2022-11-02T08:56:25.100Z,98092.88
2022-11-02T08:58:57.800Z,98088.77
2022-11-02T09:01:30.294Z,98089.20
2022-11-02T09:04:03.301Z,98087.06
2022-11-02T09:06:36.239Z,98090.55
2022-11-02T09:09:09.060Z,98093.23
2022-11-02T09:11:41.929Z,98092.40
2022-11-02T09:14:14.748Z,98095.23
2022-11-02T09:16:48.018Z,98094.70
2022-11-02T09:19:21.038Z,98097.52
2022-11-02T09:21:53.737Z,98092.94
2022-11-02T09:24:26.518Z,98095.16
2022-11-02T09:26:59.257Z,98089.65
2022-11-02T09:29:31.868Z,98091.23
2022-11-02T09:32:04.429Z,98085.76
2022-11-02T09:34:38.547Z,98088.48
2022-11-02T09:37:11.227Z,98092.84
2022-11-02T09:39:43.879Z,98090.77
2022-11-02T09:42:25.839Z,98090.52
2022-11-02T09:45:03.689Z,98093.55
2022-11-02T09:48:25.143Z,98093.91
2022-11-02T09:50:45.149Z,98089.77
2022-11-02T09:53:23.448Z,98093.05
2022-11-02T09:56:01.249Z,98087.37
2022-11-02T09:58:39.319Z,98089.26
2022-11-02T10:01:25.026Z,98089.63
2022-11-02T10:04:17.738Z,98085.41
2022-11-02T10:06:58.614Z,98082.64
2022-11-02T10:09:41.279Z,98082.73
2022-11-02T10:12:18.298Z,98081.56
2022-11-02T10:14:58.712Z,98079.33
2022-11-02T10:17:34.900Z,98079.59
2022-11-02T10:20:17.118Z,98077.85
2022-11-02T10:22:50.858Z,98080.48
2022-11-02T10:25:23.738Z,98079.26
2022-11-02T10:28:08.576Z,98079.11
2022-11-02T10:30:42.083Z,98086.73
2022-11-02T10:33:22.657Z,98088.27
2022-11-02T10:36:18.250Z,98087.22
2022-11-02T10:39:04.529Z,98089.58
2022-11-02T10:41:55.776Z,98089.17
2022-11-02T10:44:56.097Z,98086.61
2022-11-02T10:47:35.288Z,98086.04
2022-11-02T10:50:25.888Z,98085.70
2022-11-02T10:53:20.234Z,98085.40
2022-11-02T10:56:03.860Z,98084.52
2022-11-02T10:58:38.649Z,98077.64
2022-11-02T11:01:14.223Z,98079.48
2022-11-02T11:04:06.766Z,98076.71
2022-11-02T11:06:42.836Z,98071.97
2022-11-02T11:09:21.699Z,98077.79
2022-11-02T11:12:03.871Z,98077.13
2022-11-02T11:20:38.429Z,98074.27
2022-11-02T11:23:24.218Z,98071.40
2022-11-02T11:26:02.517Z,98079.79
2022-11-02T11:28:41.186Z,98076.52
2022-11-02T11:31:18.129Z,98081.45
2022-11-02T11:33:53.752Z,98077.45
2022-11-02T11:36:32.498Z,98077.21
2022-11-02T11:39:09.659Z,98075.46
2022-11-02T11:41:44.249Z,98077.82
2022-11-02T11:44:18.608Z,98077.94
2022-11-02T11:46:54.396Z,98079.57
2022-11-02T11:49:41.973Z,98079.36
2022-11-02T11:52:31.719Z,98080.75
2022-11-02T11:55:23.261Z,98075.21
2022-11-02T11:58:19.949Z,98076.96
2022-11-02T12:01:10.186Z,98073.20
2022-11-02T12:03:57.341Z,98073.44
2022-11-02T12:06:41.091Z,98075.59
2022-11-02T12:09:27.249Z,98078.58
2022-11-02T12:12:07.948Z,98076.34
2022-11-02T12:14:51.619Z,98074.80
2022-11-02T12:17:45.570Z,98074.30
2022-11-02T12:20:38.057Z,98070.44
2022-11-02T12:23:28.762Z,98067.60
2022-11-02T12:26:14.910Z,98066.27
2022-11-02T12:28:52.296Z,98060.22
2022-11-02T12:31:37.709Z,98065.56
2022-11-02T12:34:38.928Z,98058.23
2022-11-02T12:37:41.405Z,98052.95
2022-11-02T12:40:27.320Z,98052.83
2022-11-02T12:43:16.967Z,98048.50
2022-11-02T12:46:01.765Z,98047.67
2022-11-02T12:48:46.488Z,98048.59
2022-11-02T12:51:25.868Z,98046.15
2022-11-02T12:54:01.167Z,98050.23
2022-11-02T12:56:44.438Z,98048.95
2022-11-02T12:59:21.629Z,98046.02
2022-11-02T13:01:58.459Z,98046.35
2022-11-02T13:04:38.688Z,98048.73
2022-11-02T13:07:16.818Z,98048.00
2022-11-02T13:09:57.342Z,98046.86
2022-11-02T13:12:33.858Z,98050.41
2022-11-02T13:15:11.875Z,98055.05
2022-11-02T13:17:51.041Z,98054.49
2022-11-02T13:20:27.875Z,98054.83
2022-11-02T13:23:07.928Z,98056.35
2022-11-02T13:25:48.748Z,98056.91
2022-11-02T13:28:27.999Z,98053.77
2022-11-02T13:31:01.468Z,98057.10
2022-11-02T13:33:43.918Z,98058.98
2022-11-02T13:36:17.703Z,98057.54
2022-11-02T13:38:53.429Z,98063.69
2022-11-02T13:41:41.870Z,98061.44
2022-11-02T13:44:47.048Z,98063.69
2022-11-02T13:47:48.985Z,98062.77
2022-11-02T13:50:25.603Z,98062.67
2022-11-02T13:53:03.975Z,98060.84
2022-11-02T13:55:46.174Z,98068.13
2022-11-02T13:58:27.148Z,98068.59
2022-11-02T14:01:04.031Z,98073.27
2022-11-02T14:03:49.405Z,98072.55
2022-11-02T14:06:24.069Z,98073.35
2022-11-02T14:08:59.538Z,98067.34
2022-11-02T14:11:46.990Z,98070.48
2022-11-02T14:14:27.598Z,98069.67
2022-11-02T14:17:17.842Z,98067.48
2022-11-02T14:20:05.148Z,98069.89
2022-11-02T14:22:38.184Z,98070.83
2022-11-02T14:25:21.430Z,98072.75
2022-11-02T14:27:55.959Z,98073.29
2022-11-02T14:30:49.320Z,98072.55
2022-11-02T14:33:45.418Z,98073.49
2022-11-02T14:36:37.849Z,98072.70
2022-11-02T14:39:23.338Z,98072.52
2022-11-02T14:42:23.259Z,98069.05
2022-11-02T14:45:22.930Z,98071.16
2022-11-02T14:48:02.766Z,98073.33
2022-11-02T14:50:37.518Z,98074.67
2022-11-02T14:53:24.158Z,98072.08
2022-11-02T14:56:00.261Z,98074.61
2022-11-02T14:58:37.713Z,98077.52
2022-11-02T15:01:15.490Z,98079.25
2022-11-02T15:03:51.039Z,98078.44
2022-11-02T15:06:32.178Z,98080.28
2022-11-02T15:09:06.108Z,98079.67
2022-11-02T15:11:51.129Z,98079.53
2022-11-02T15:14:58.180Z,98075.48
2022-11-02T15:18:05.230Z,98077.13
2022-11-02T15:20:45.899Z,98078.35
2022-11-02T15:23:31.124Z,98085.48
2022-11-02T15:26:14.768Z,98086.29
2022-11-02T15:28:49.358Z,98088.42
2022-11-02T15:31:26.315Z,98089.33
2022-11-02T15:34:01.388Z,98089.61
2022-11-02T15:36:38.374Z,98089.46
2022-11-02T15:39:12.891Z,98089.86
2022-11-02T15:41:53.319Z,98085.10
2022-11-02T15:45:05.484Z,98090.85
2022-11-02T15:47:59.349Z,98094.86
2022-11-02T15:50:44.602Z,98095.75
2022-11-02T15:53:37.149Z,98101.59
2022-11-02T15:56:23.069Z,98099.48
2022-11-02T15:59:20.508Z,98105.09
2022-11-02T16:02:12.778Z,98104.52
2022-11-02T16:04:49.927Z,98108.45
2022-11-02T16:07:33.098Z,98113.44
2022-11-02T16:10:25.469Z,98113.77
2022-11-02T16:13:03.614Z,98119.73
2022-11-02T16:15:36.614Z,98120.85
2022-11-02T16:18:24.152Z,98120.48
2022-11-02T16:21:00.115Z,98120.82
2022-11-02T16:23:35.164Z,98117.34
2022-11-02T16:26:19.919Z,98122.42
2022-11-02T16:28:55.202Z,98127.60
2022-11-02T16:31:31.383Z,98129.61
2022-11-02T16:34:09.128Z,98130.05
2022-11-02T16:36:42.036Z,98131.73
2022-11-02T16:39:22.301Z,98135.52
2022-11-02T16:41:57.791Z,98141.11
2022-11-02T16:44:32.495Z,98149.20
2022-11-02T16:47:19.958Z,98156.77
2022-11-02T16:50:06.031Z,98158.80
2022-11-02T16:52:42.699Z,98156.52
2022-11-02T16:55:43.198Z,98150.56
2022-11-02T16:58:23.233Z,98153.68
2022-11-02T17:01:05.822Z,98154.11
2022-11-02T17:03:41.502Z,98160.80
2022-11-02T17:06:14.427Z,98161.42
2022-11-02T17:08:52.429Z,98161.13
2022-11-02T17:11:28.092Z,98161.60
2022-11-02T17:14:02.939Z,98166.36
2022-11-02T17:16:37.951Z,98166.81
2022-11-02T17:19:48.496Z,98167.66
2022-11-02T17:22:31.361Z,98167.76
2022-11-02T17:25:15.321Z,98170.89
2022-11-02T17:27:48.096Z,98173.88
2022-11-02T17:30:48.140Z,98173.05
2022-11-02T17:33:30.087Z,98175.13
2022-11-02T17:36:10.896Z,98174.31
2022-11-02T17:38:46.958Z,98183.70
2022-11-02T17:41:47.763Z,98180.46
2022-11-02T17:44:22.039Z,98178.77
2022-11-02T17:46:56.658Z,98179.27
2022-11-02T17:49:29.079Z,98182.44
2022-11-02T17:52:02.410Z,98179.02
2022-11-02T17:54:39.021Z,98177.44
2022-11-02T17:57:15.749Z,98173.83
2022-11-02T17:59:48.717Z,98176.95
2022-11-02T18:02:21.955Z,98179.09
2022-11-02T18:04:56.339Z,98184.04
2022-11-02T18:07:41.230Z,98184.83
2022-11-02T18:10:22.159Z,98185.33
2022-11-02T18:12:57.459Z,98188.29
2022-11-02T18:15:34.259Z,98185.70
2022-11-02T18:18:10.883Z,98181.36
2022-11-02T18:20:44.179Z,98180.68
2022-11-02T18:23:21.182Z,98182.41
2022-11-02T18:25:58.356Z,98184.52
2022-11-02T18:28:32.449Z,98194.92
2022-11-02T18:31:06.764Z,98194.45
2022-11-02T18:33:40.615Z,98201.74
2022-11-02T18:36:17.669Z,98197.58
2022-11-02T18:38:54.308Z,98201.38
2022-11-02T18:41:32.769Z,98202.92
2022-11-02T18:44:14.817Z,98204.22
2022-11-02T18:46:50.967Z,98202.54
2022-11-02T18:49:30.653Z,98203.83
2022-11-02T18:52:08.312Z,98207.57
2022-11-02T18:54:48.872Z,98209.69
2022-11-02T18:57:28.197Z,98209.63
2022-11-02T19:00:10.638Z,98205.91
2022-11-02T19:02:51.448Z,98209.13
2022-11-02T19:05:47.108Z,98216.11
2022-11-02T19:08:40.708Z,98219.28
2022-11-02T19:11:14.247Z,98217.92
2022-11-02T19:13:48.486Z,98222.85
2022-11-02T19:16:26.669Z,98224.90
2022-11-02T19:19:06.649Z,98227.69
2022-11-02T19:21:45.467Z,98227.23
2022-11-02T19:24:23.774Z,98222.82
2022-11-02T19:27:04.709Z,98222.55
2022-11-02T19:29:43.824Z,98220.22
2022-11-02T19:32:22.992Z,98215.46
2022-11-02T19:35:03.008Z,98219.77
2022-11-02T19:37:36.287Z,98232.77
2022-11-02T19:40:10.880Z,98241.27
2022-11-02T19:42:46.638Z,98250.75
2022-11-02T19:45:20.126Z,98253.76
2022-11-02T19:47:52.777Z,98252.77
2022-11-02T19:50:27.338Z,98256.05
2022-11-02T19:53:01.417Z,98256.39
2022-11-02T19:55:34.417Z,98264.10
2022-11-02T19:58:09.650Z,98268.20
2022-11-02T20:00:42.398Z,98267.33
2022-11-02T20:03:16.715Z,98271.05
2022-11-02T20:05:50.225Z,98273.27
2022-11-02T20:08:22.973Z,98269.27
2022-11-02T20:10:55.728Z,98269.96
2022-11-02T20:13:28.461Z,98273.75
2022-11-02T20:16:01.490Z,98270.12
2022-11-02T20:18:35.372Z,98267.47
2022-11-02T20:21:10.401Z,98269.70
2022-11-02T20:23:45.048Z,98272.39
2022-11-02T20:26:21.128Z,98280.14
2022-11-02T20:28:55.725Z,98287.30
2022-11-02T20:31:30.025Z,98289.36
2022-11-02T20:34:08.047Z,98288.86
2022-11-02T20:36:41.688Z,98289.73
2022-11-02T20:39:13.849Z,98292.50
2022-11-02T20:41:47.788Z,98285.71
2022-11-02T20:44:25.348Z,98283.49
2022-11-02T20:46:59.064Z,98275.05
2022-11-02T20:52:25.907Z,98269.48
2022-11-02T20:54:58.640Z,98270.45
2022-11-02T20:57:31.346Z,98274.02
2022-11-02T21:00:04.159Z,98278.89
2022-11-02T21:02:37.624Z,98280.64
2022-11-02T21:05:11.608Z,98282.73
2022-11-02T21:07:51.777Z,98280.83
2022-11-02T21:10:25.169Z,98280.20
2022-11-02T21:13:15.109Z,98282.17
2022-11-02T21:15:47.893Z,98285.23
2022-11-02T21:18:20.458Z,98289.64
2022-11-02T21:20:53.088Z,98287.77
2022-11-02T21:23:29.726Z,98285.04
2022-11-02T21:26:03.978Z,98281.80
2022-11-02T21:28:39.406Z,98279.05
2022-11-02T21:31:13.439Z,98279.27
2022-11-02T21:33:46.758Z,98283.19
2022-11-02T21:36:21.559Z,98284.39
2022-11-02T21:38:54.298Z,98282.00
2022-11-02T21:41:29.200Z,98283.05
2022-11-02T21:44:04.087Z,98287.05
2022-11-02T21:46:37.758Z,98297.10
2022-11-02T21:49:10.617Z,98298.55
2022-11-02T21:51:43.217Z,98301.04
2022-11-02T21:54:15.938Z,98297.08
2022-11-02T21:56:50.768Z,98292.46
2022-11-02T21:59:23.877Z,98290.94
2022-11-02T22:01:56.911Z,98294.08
2022-11-02T22:04:32.150Z,98291.39
2022-11-02T22:07:06.340Z,98293.20
2022-11-02T22:09:38.981Z,98290.36
2022-11-02T22:12:40.437Z,98293.33
2022-11-02T22:15:13.888Z,98293.23
2022-11-02T22:17:50.286Z,98292.40
2022-11-02T22:20:22.936Z,98298.96
2022-11-02T22:22:55.808Z,98301.58
2022-11-02T22:25:28.458Z,98306.64
2022-11-02T22:28:02.275Z,98310.84
2022-11-02T22:30:34.932Z,98309.73
2022-11-02T22:33:13.113Z,98314.73
2022-11-02T22:35:45.669Z,98312.17
2022-11-02T22:38:35.409Z,98305.16
2022-11-02T22:41:08.448Z,98310.73
2022-11-02T22:43:41.307Z,98312.30
2022-11-02T22:46:15.129Z,98310.98
2022-11-02T22:48:48.079Z,98308.92
2022-11-02T22:51:21.260Z,98305.64
2022-11-02T22:53:54.469Z,98311.45
2022-11-02T22:56:27.540Z,98313.08
2022-11-02T22:59:00.949Z,98314.16
2022-11-02T23:01:34.589Z,98311.62
2022-11-02T23:04:05.954Z,98312.03
2022-11-02T23:06:38.707Z,98316.95
2022-11-02T23:09:12.480Z,98319.20
2022-11-02T23:11:45.627Z,98321.33
2022-11-02T23:14:19.937Z,98324.96
2022-11-02T23:16:52.597Z,98325.64
2022-11-02T23:19:30.124Z,98325.35
2022-11-02T23:22:22.090Z,98324.86
2022-11-02T23:25:15.501Z,98325.40
2022-11-02T23:28:15.341Z,98324.38
2022-11-02T23:31:05.381Z,98322.70
2022-11-02T23:33:41.208Z,98324.46
2022-11-02T23:36:15.646Z,98325.17
2022-11-02T23:39:07.627Z,98330.85
2022-11-02T23:41:42.983Z,98331.75
2022-11-02T23:44:15.648Z,98331.77
2022-11-02T23:46:50.137Z,98333.17
2022-11-02T23:49:22.838Z,98338.73
2022-11-02T23:52:12.712Z,98336.17
2022-11-02T23:55:02.629Z,98342.24
2022-11-02T23:57:35.410Z,98342.65
